Darlington, South Carolina
Current Conditions -  °F | °C
As of 6:55 PM on Saturday 20 Dec 2014 (Local Time) from KUDG Reporting Station
Overcast Overcast  
Wind Chill: 41°   Ceiling: 6000
Heat Index: 45°   Visibility: 10mi
Dew Point: 36°   Wind: 6mph
Humidity: 71%   Direction: 40°NE
Pressure: 30.26"   Gusts: NA
Location:  34.3°N, 79.87°W
Report Text: KUDG 202355Z AUTO 04005KT 10SM OVC060 07/02 A3026 RMK AO1 10080 20070 400800040 52010
Loading
Personal Weather Stations






























Interactive Weather Map New forecast layout! Learn more

10-Day Weather Forecast

Advertisements
Track Severe Weather on mobile